Time;durP1;ratioP1;P1;durP2;ratioP2;P2;SDS_P1;SDS_P2;PMS_P1;PMS_P2;Temp;Humidity;BMP_temperature;BMP_pressure;BME280_temperature;BME280_humidity;BME280_pressure;Samples;Min_cycle;Max_cycle;Signal;HPM_P1;HPM_P2
2022/12/13 00:01:13;;;;;;;28.98;15.43;;;-2.60;99.90;;;;;;5051247;28;20043;-70
2022/12/13 00:03:39;;;;;;;29.98;13.93;;;-2.70;99.90;;;;;;5034912;28;20045;-70
2022/12/13 00:06:10;;;;;;;31.40;15.20;;;-2.60;99.90;;;;;;5050924;28;20124;-71
2022/12/13 00:08:36;;;;;;;31.65;15.50;;;-2.50;99.90;;;;;;5051460;28;20124;-71
2022/12/13 00:11:05;;;;;;;30.00;14.98;;;-2.40;99.90;;;;;;5034093;28;20032;-71
2022/12/13 00:13:32;;;;;;;29.10;15.30;;;-2.40;99.90;;;;;;5034961;28;20371;-70
2022/12/13 00:15:59;;;;;;;32.00;17.27;;;-2.40;99.90;;;;;;5067046;28;20102;-70
2022/12/13 00:18:25;;;;;;;30.88;17.02;;;-2.40;99.90;;;;;;5071438;28;20497;-71
2022/12/13 00:20:51;;;;;;;28.75;15.98;;;-2.40;99.90;;;;;;5054574;28;20045;-71
2022/12/13 00:23:16;;;;;;;28.65;15.57;;;-2.50;99.90;;;;;;5034664;28;20049;-71
2022/12/13 00:25:42;;;;;;;31.15;16.48;;;-2.60;99.90;;;;;;5051270;28;20033;-71
2022/12/13 00:28:07;;;;;;;28.90;15.00;;;-2.60;99.90;;;;;;5050447;28;20072;-71
2022/12/13 00:30:34;;;;;;;30.50;15.63;;;-2.70;99.90;;;;;;5055413;28;20047;-71
2022/12/13 00:32:59;;;;;;;30.95;15.38;;;-2.70;99.90;;;;;;5056021;28;20041;-71
2022/12/13 00:35:25;;;;;;;29.02;15.38;;;-2.70;99.90;;;;;;5058344;28;20123;-71
2022/12/13 00:37:50;;;;;;;31.40;16.30;;;-2.60;99.90;;;;;;5057051;28;20051;-71
2022/12/13 00:40:17;;;;;;;29.15;16.17;;;-2.70;99.90;;;;;;5074738;28;20040;-71
2022/12/13 00:42:42;;;;;;;31.25;15.25;;;-2.60;99.90;;;;;;5042866;28;20059;-71
2022/12/13 00:45:08;;;;;;;29.02;15.20;;;-2.60;99.90;;;;;;5053846;28;20532;-71
2022/12/13 00:47:36;;;;;;;30.58;15.95;;;-2.60;99.90;;;;;;5054665;28;20033;-71
2022/12/13 00:50:03;;;;;;;35.95;16.75;;;-2.70;99.90;;;;;;5053073;28;20374;-70
2022/12/13 00:52:28;;;;;;;32.75;16.13;;;-2.80;99.90;;;;;;5073740;28;20064;-71
2022/12/13 00:54:54;;;;;;;29.90;16.33;;;-2.80;99.90;;;;;;5074402;28;20520;-71
2022/12/13 00:57:20;;;;;;;27.58;15.05;;;-2.90;99.90;;;;;;5057808;28;20381;-71
2022/12/13 00:59:45;;;;;;;27.90;14.68;;;-2.90;99.90;;;;;;5074276;28;20123;-71
2022/12/13 01:02:11;;;;;;;30.50;15.95;;;-2.80;99.90;;;;;;5063681;28;20420;-71
2022/12/13 01:04:37;;;;;;;26.88;15.35;;;-2.70;99.90;;;;;;5054129;28;20053;-71
2022/12/13 01:07:03;;;;;;;28.33;14.90;;;-2.70;99.90;;;;;;5045562;28;20408;-71
2022/12/13 01:09:31;;;;;;;30.33;15.45;;;-2.70;99.90;;;;;;5074151;28;20047;-71
2022/12/13 01:12:03;;;;;;;28.58;14.32;;;-2.60;99.90;;;;;;5057815;28;20385;-71
2022/12/13 01:14:28;;;;;;;25.88;14.32;;;-2.60;99.90;;;;;;5073021;28;20103;-71
2022/12/13 01:16:54;;;;;;;31.02;15.35;;;-2.60;99.90;;;;;;5057420;28;20029;-71
2022/12/13 01:19:23;;;;;;;29.98;14.52;;;-2.60;99.90;;;;;;5055339;28;20041;-71
2022/12/13 01:21:52;;;;;;;27.58;14.77;;;-2.60;99.90;;;;;;5054267;28;20045;-71
2022/12/13 01:24:20;;;;;;;26.55;14.32;;;-2.70;99.90;;;;;;5054121;28;20099;-71
2022/12/13 01:26:46;;;;;;;30.50;15.68;;;-2.70;99.90;;;;;;5042142;28;20094;-71
2022/12/13 01:29:11;;;;;;;30.23;16.08;;;-2.70;99.90;;;;;;5073832;28;20511;-71
2022/12/13 01:31:40;;;;;;;30.48;15.90;;;-2.80;99.90;;;;;;5056089;28;20123;-71
2022/12/13 01:34:09;;;;;;;29.38;15.27;;;-2.80;99.90;;;;;;5073676;28;20041;-71
2022/12/13 01:36:35;;;;;;;28.33;15.18;;;-2.80;99.90;;;;;;5064272;28;20485;-71
2022/12/13 01:39:02;;;;;;;29.17;15.25;;;-2.70;99.90;;;;;;5037100;28;20051;-71
2022/12/13 01:41:29;;;;;;;29.45;15.43;;;-2.70;99.90;;;;;;5038913;28;20069;-70
2022/12/13 01:43:59;;;;;;;27.83;14.45;;;-2.70;99.90;;;;;;5072238;28;20123;-71
2022/12/13 01:46:25;;;;;;;26.30;14.43;;;-2.70;99.90;;;;;;5054216;28;20037;-71
2022/12/13 01:49:07;;;;;;;27.95;15.38;;;-2.70;99.90;;;;;;5053681;28;20547;-71
2022/12/13 01:52:01;;;;;;;27.58;15.13;;;-2.80;99.90;;;;;;5052641;28;20037;-71
2022/12/13 01:54:32;;;;;;;28.10;14.55;;;-2.80;99.90;;;;;;5036924;28;20405;-71
2022/12/13 01:56:58;;;;;;;29.85;15.55;;;-2.80;99.90;;;;;;5053387;28;20083;-71
2022/12/13 01:59:25;;;;;;;26.52;14.90;;;-2.80;99.90;;;;;;5053383;28;20083;-71
2022/12/13 02:01:52;;;;;;;29.05;14.75;;;-2.80;99.90;;;;;;5059738;28;20044;-71
2022/12/13 02:04:25;;;;;;;30.17;16.27;;;-2.80;99.90;;;;;;5055161;28;20044;-71
2022/12/13 02:06:52;;;;;;;25.65;14.23;;;-2.80;99.90;;;;;;5073238;28;20097;-71
2022/12/13 02:09:19;;;;;;;30.10;14.80;;;-2.80;99.90;;;;;;5038283;28;20516;-71
2022/12/13 02:11:45;;;;;;;28.20;14.93;;;-2.80;99.90;;;;;;5036737;28;20105;-70
2022/12/13 02:14:11;;;;;;;27.23;14.95;;;-2.90;99.90;;;;;;5059560;28;20402;-71
2022/12/13 02:17:06;;;;;;;26.75;14.38;;;-3.00;99.90;;;;;;5071016;28;20037;-71
2022/12/13 02:20:20;;;;;;;26.15;14.60;;;-3.10;99.90;;;;;;5036413;28;20056;-71
2022/12/13 02:22:57;;;;;;;29.13;16.13;;;-3.00;99.90;;;;;;5036200;28;20047;-71
2022/12/13 02:25:49;;;;;;;25.08;14.50;;;-3.00;99.90;;;;;;5035452;28;20036;-71
2022/12/13 02:28:50;;;;;;;27.90;13.98;;;-3.00;99.90;;;;;;5053274;28;20043;-71
2022/12/13 02:31:52;;;;;;;28.52;14.80;;;-3.00;99.90;;;;;;5052947;28;20044;-71
2022/12/13 02:34:33;;;;;;;26.73;14.43;;;-3.00;99.90;;;;;;5050972;28;20048;-71
2022/12/13 02:37:21;;;;;;;25.65;14.10;;;-3.00;99.90;;;;;;5055902;28;20119;-71
2022/12/13 02:39:53;;;;;;;25.77;13.38;;;-3.00;99.90;;;;;;5053364;28;20392;-71
2022/12/13 02:42:33;;;;;;;26.70;14.13;;;-3.00;99.90;;;;;;5046587;28;20033;-71
2022/12/13 02:45:12;;;;;;;25.83;13.88;;;-3.00;99.90;;;;;;5072625;28;20040;-71
2022/12/13 02:47:42;;;;;;;27.83;14.35;;;-3.00;99.90;;;;;;5054680;28;20120;-70
2022/12/13 02:50:10;;;;;;;26.65;13.93;;;-3.00;99.90;;;;;;5072339;28;20093;-70
2022/12/13 02:52:39;;;;;;;25.30;14.75;;;-3.00;99.90;;;;;;5072535;28;20040;-70
2022/12/13 02:55:12;;;;;;;26.20;14.82;;;-3.00;99.90;;;;;;5044901;28;20037;-70
2022/12/13 02:57:43;;;;;;;28.48;15.50;;;-3.00;99.90;;;;;;5063263;28;20036;-70
2022/12/13 03:00:17;;;;;;;28.43;14.57;;;-2.90;99.90;;;;;;5038628;28;20095;-71
2022/12/13 03:03:05;;;;;;;27.33;14.48;;;-3.00;99.90;;;;;;5034762;28;20275;-71
2022/12/13 03:08:38;;;;;;;27.35;13.63;;;-3.00;99.90;;;;;;5051011;28;20041;-71
2022/12/13 03:11:10;;;;;;;25.98;12.00;;;-3.10;99.90;;;;;;5033773;28;20099;-70
2022/12/13 03:13:55;;;;;;;24.63;12.48;;;-3.10;99.90;;;;;;5030745;28;20106;-70
2022/12/13 03:16:27;;;;;;;26.77;13.77;;;-3.10;99.90;;;;;;5071902;28;20043;-70
2022/12/13 03:18:56;;;;;;;;;;;-3.10;99.90;;;;;;5055929;28;20401;-70
2022/12/13 03:21:22;;;;;;;26.55;13.07;;;-3.20;99.90;;;;;;5038401;28;20070;-70
2022/12/13 03:23:48;;;;;;;22.88;13.25;;;-3.20;99.90;;;;;;5055159;28;20082;-70
2022/12/13 03:26:19;;;;;;;27.25;12.57;;;-3.30;99.90;;;;;;5068797;28;20125;-70
2022/12/13 03:28:44;;;;;;;25.48;14.13;;;-3.30;99.90;;;;;;5055250;28;20040;-70
2022/12/13 03:31:10;;;;;;;26.10;14.18;;;-3.30;99.90;;;;;;5054054;28;20382;-70
2022/12/13 03:33:37;;;;;;;26.88;12.88;;;-3.30;99.90;;;;;;5071781;28;20075;-71
2022/12/13 03:36:03;;;;;;;29.10;14.00;;;-3.30;99.90;;;;;;5053828;28;20041;-70
2022/12/13 03:38:29;;;;;;;27.05;13.40;;;-3.30;99.90;;;;;;5072099;28;20037;-70
2022/12/13 03:40:59;;;;;;;26.55;13.35;;;-3.30;99.90;;;;;;5071686;28;20032;-70
2022/12/13 03:43:25;;;;;;;25.52;13.00;;;-3.40;99.90;;;;;;5051231;28;20041;-70
2022/12/13 03:45:52;;;;;;;30.83;16.23;;;-3.30;99.90;;;;;;5051711;28;20033;-70
2022/12/13 03:48:18;;;;;;;30.60;15.82;;;-3.30;99.90;;;;;;5051616;28;20041;-70
2022/12/13 03:50:44;;;;;;;27.50;14.25;;;-3.30;99.90;;;;;;5045829;28;20041;-70
2022/12/13 03:53:09;;;;;;;28.27;15.32;;;-3.30;99.90;;;;;;5071748;28;20051;-70
2022/12/13 03:55:35;;;;;;;29.65;15.82;;;-3.30;99.90;;;;;;5070710;28;20112;-71
2022/12/13 03:58:00;;;;;;;26.77;15.07;;;-3.40;99.90;;;;;;5049660;28;20048;-71
2022/12/13 04:00:26;;;;;;;25.20;14.15;;;-3.40;99.90;;;;;;5051639;28;20055;-70
2022/12/13 04:02:51;;;;;;;28.15;15.32;;;-3.30;99.90;;;;;;5051523;28;20044;-71
2022/12/13 04:05:17;;;;;;;26.95;14.30;;;-3.30;99.90;;;;;;5034710;28;20087;-71
2022/12/13 04:07:43;;;;;;;27.67;13.65;;;-3.30;99.90;;;;;;5052175;28;20057;-71
2022/12/13 04:10:09;;;;;;;25.67;13.18;;;-3.30;99.90;;;;;;5055707;28;20511;-71
2022/12/13 04:15:18;;;;;;;25.58;13.18;;;-3.20;99.90;;;;;;5055197;28;20049;-70
2022/12/13 04:17:44;;;;;;;27.88;14.10;;;-3.20;99.90;;;;;;5052283;28;20048;-70
2022/12/13 04:20:10;;;;;;;27.02;14.40;;;-3.20;99.90;;;;;;5058734;28;20047;-70
2022/12/13 04:22:35;;;;;;;27.33;13.70;;;-3.30;99.90;;;;;;5071287;28;20041;-70
2022/12/13 04:25:02;;;;;;;26.63;13.63;;;-3.30;99.90;;;;;;5038405;28;20039;-70
2022/12/13 04:27:28;;;;;;;25.02;12.77;;;-3.30;99.90;;;;;;5055079;28;20087;-71
2022/12/13 04:29:53;;;;;;;25.25;12.98;;;-3.30;99.90;;;;;;5053041;28;20036;-70
2022/12/13 04:32:19;;;;;;;25.33;13.23;;;-3.30;99.90;;;;;;5057224;28;20462;-70
2022/12/13 04:34:44;;;;;;;25.02;13.35;;;-3.40;99.90;;;;;;5058274;28;20451;-71
2022/12/13 04:37:10;;;;;;;24.75;13.52;;;-3.40;99.90;;;;;;5058082;28;20083;-70
2022/12/13 04:39:35;;;;;;;27.23;13.95;;;-3.40;99.90;;;;;;5046306;28;20040;-70
2022/12/13 04:42:01;;;;;;;25.05;13.30;;;-3.40;99.90;;;;;;5038185;28;20048;-70
2022/12/13 04:44:27;;;;;;;27.25;13.43;;;-3.40;99.90;;;;;;5038349;28;20384;-71
2022/12/13 04:46:52;;;;;;;25.38;13.35;;;-3.40;99.90;;;;;;5070861;28;20029;-70
2022/12/13 04:49:18;;;;;;;26.40;13.07;;;-3.40;99.90;;;;;;5038302;28;20477;-70
2022/12/13 04:51:43;;;;;;;26.23;13.77;;;-3.40;99.90;;;;;;5038043;28;20037;-71
2022/12/13 04:54:09;;;;;;;23.15;12.88;;;-3.40;99.90;;;;;;5037947;28;20043;-70
2022/12/13 04:56:36;;;;;;;24.45;12.85;;;-3.40;99.90;;;;;;5037289;28;20051;-70
2022/12/13 04:59:01;;;;;;;25.88;13.90;;;-3.40;99.90;;;;;;5054441;28;20044;-71
2022/12/13 05:01:27;;;;;;;23.23;12.43;;;-3.40;99.90;;;;;;5040530;28;20448;-70
2022/12/13 05:03:52;;;;;;;27.27;13.57;;;-3.40;99.90;;;;;;5057425;28;20052;-70
2022/12/13 05:06:18;;;;;;;24.58;14.32;;;-3.40;99.90;;;;;;5074480;28;20076;-71
2022/12/13 05:08:43;;;;;;;23.88;13.55;;;-3.40;99.90;;;;;;5074669;28;20488;-71
2022/12/13 05:11:10;;;;;;;23.23;13.13;;;-3.40;99.90;;;;;;5068274;28;20037;-71
2022/12/13 05:13:36;;;;;;;25.40;13.80;;;-3.30;99.90;;;;;;5037654;28;20047;-70
2022/12/13 05:16:04;;;;;;;23.30;13.52;;;-3.30;99.90;;;;;;5053690;28;20066;-71
2022/12/13 05:18:30;;;;;;;25.00;14.85;;;-3.30;99.90;;;;;;5073866;28;20507;-71
2022/12/13 05:21:00;;;;;;;24.17;13.25;;;-3.30;99.90;;;;;;5056820;28;20036;-70
2022/12/13 05:23:26;;;;;;;26.58;14.80;;;-3.30;99.90;;;;;;5057343;28;20036;-71
2022/12/13 05:25:51;;;;;;;24.33;13.13;;;-3.30;99.90;;;;;;5073883;28;20111;-71
2022/12/13 05:28:17;;;;;;;25.67;13.85;;;-3.40;99.90;;;;;;5042778;28;20029;-71
2022/12/13 05:30:43;;;;;;;26.80;14.57;;;-3.40;99.90;;;;;;5057212;28;20071;-70
2022/12/13 05:33:10;;;;;;;26.88;13.75;;;-3.30;99.90;;;;;;5048829;28;20037;-70
2022/12/13 05:35:36;;;;;;;26.75;14.85;;;-3.30;99.90;;;;;;5037186;28;20044;-71
2022/12/13 05:38:02;;;;;;;22.95;13.40;;;-3.40;99.90;;;;;;5037027;28;20044;-71
2022/12/13 05:40:29;;;;;;;26.45;14.10;;;-3.40;99.90;;;;;;5037023;28;20048;-71
2022/12/13 05:42:55;;;;;;;28.50;14.15;;;-3.40;99.90;;;;;;5053098;28;20052;-71
2022/12/13 05:45:21;;;;;;;26.52;14.25;;;-3.30;99.90;;;;;;5037305;28;20029;-71
2022/12/13 05:47:47;;;;;;;25.60;14.57;;;-3.30;99.90;;;;;;5067349;28;20558;-71
2022/12/13 05:50:14;;;;;;;26.75;15.18;;;-3.30;99.90;;;;;;5061499;28;20036;-71
2022/12/13 05:52:41;;;;;;;24.42;13.80;;;-3.30;99.90;;;;;;5053731;28;20045;-71
2022/12/13 05:55:07;;;;;;;27.85;15.77;;;-3.30;99.90;;;;;;5037033;28;20412;-70
2022/12/13 05:57:33;;;;;;;26.30;14.07;;;-3.30;99.90;;;;;;5048410;28;20064;-71
2022/12/13 05:59:59;;;;;;;28.33;15.10;;;-3.30;99.90;;;;;;5041511;28;20076;-71
2022/12/13 06:02:24;;;;;;;23.33;14.38;;;-3.30;99.90;;;;;;5053244;28;20041;-71
2022/12/13 06:04:50;;;;;;;26.92;14.10;;;-3.30;99.90;;;;;;5069735;28;20076;-71
2022/12/13 06:07:16;;;;;;;27.05;14.82;;;-3.30;99.90;;;;;;5062778;28;20060;-71
2022/12/13 06:09:41;;;;;;;26.23;14.85;;;-3.40;99.90;;;;;;5045390;28;20073;-71
2022/12/13 06:12:08;;;;;;;21.90;13.15;;;-3.30;99.90;;;;;;5036707;28;20029;-71
2022/12/13 06:14:34;;;;;;;26.05;13.77;;;-3.40;99.90;;;;;;5039115;28;20044;-71
2022/12/13 06:17:00;;;;;;;24.25;13.77;;;-3.30;99.90;;;;;;5070800;28;20037;-71
2022/12/13 06:19:25;;;;;;;24.13;12.88;;;-3.30;99.90;;;;;;5073160;28;20397;-71
2022/12/13 06:21:53;;;;;;;24.02;13.38;;;-3.30;99.90;;;;;;5072692;28;20485;-71
2022/12/13 06:24:21;;;;;;;25.92;14.00;;;-3.30;99.90;;;;;;5069624;28;20040;-71
2022/12/13 06:26:48;;;;;;;25.27;14.40;;;-3.30;99.90;;;;;;5036444;28;20515;-71
2022/12/13 06:29:15;;;;;;;28.00;14.82;;;-3.40;99.90;;;;;;5036184;28;20048;-71
2022/12/13 06:31:41;;;;;;;27.70;15.00;;;-3.40;99.90;;;;;;5056538;28;20040;-71
2022/12/13 06:34:06;;;;;;;26.48;13.60;;;-3.50;99.90;;;;;;5040529;28;20519;-71
2022/12/13 06:36:32;;;;;;;29.20;15.98;;;-3.40;99.90;;;;;;5052103;28;20135;-71
2022/12/13 06:39:02;;;;;;;27.92;15.65;;;-3.40;99.90;;;;;;5036222;28;20044;-71
2022/12/13 06:41:28;;;;;;;26.15;14.57;;;-3.40;99.90;;;;;;5051480;28;20083;-71
2022/12/13 06:43:54;;;;;;;23.25;13.90;;;-3.40;99.90;;;;;;5051647;28;20486;-71
2022/12/13 06:46:19;;;;;;;27.67;14.73;;;-3.50;99.90;;;;;;5055971;28;20044;-71
2022/12/13 06:48:45;;;;;;;26.77;14.02;;;-3.40;99.90;;;;;;5069058;28;20036;-71
2022/12/13 06:51:10;;;;;;;29.70;15.40;;;-3.30;99.90;;;;;;5055864;28;20029;-71
2022/12/13 06:53:38;;;;;;;23.10;13.25;;;-3.30;99.90;;;;;;5045614;28;20041;-71
2022/12/13 06:56:06;;;;;;;27.30;15.70;;;-3.30;99.90;;;;;;5036033;28;20381;-71
2022/12/13 06:58:33;;;;;;;30.25;14.65;;;-3.30;99.90;;;;;;5035587;28;20078;-71
2022/12/13 07:01:04;;;;;;;29.25;16.75;;;-3.30;99.90;;;;;;5052326;28;20404;-71
2022/12/13 07:03:30;;;;;;;26.65;15.90;;;-3.20;99.90;;;;;;5062178;28;20082;-71
2022/12/13 07:05:58;;;;;;;27.13;14.52;;;-3.20;99.90;;;;;;5052320;28;20133;-71
2022/12/13 07:08:24;;;;;;;28.88;15.20;;;-3.30;99.90;;;;;;5052016;28;20068;-71
2022/12/13 07:10:52;;;;;;;29.42;15.73;;;-3.30;99.90;;;;;;5050700;28;20044;-71
2022/12/13 07:13:19;;;;;;;25.42;14.77;;;-3.20;99.90;;;;;;5052485;28;21765;-71
2022/12/13 07:15:45;;;;;;;28.92;15.95;;;-3.30;99.90;;;;;;5050424;28;20064;-71
2022/12/13 07:18:11;;;;;;;28.13;15.43;;;-3.30;99.90;;;;;;5023339;28;20033;-71
2022/12/13 07:20:39;;;;;;;30.88;16.27;;;-3.30;99.90;;;;;;5052175;28;20079;-71
2022/12/13 07:23:04;;;;;;;31.70;15.10;;;-3.30;99.90;;;;;;5045813;28;20039;-71
2022/12/13 07:25:30;;;;;;;31.30;16.27;;;-3.30;99.90;;;;;;5056197;28;20037;-71
2022/12/13 07:28:01;;;;;;;30.00;14.85;;;-3.30;99.90;;;;;;5051572;28;20044;-71
2022/12/13 07:30:26;;;;;;;26.98;16.48;;;-3.30;99.90;;;;;;5035062;28;20048;-71
2022/12/13 07:32:52;;;;;;;31.05;16.02;;;-3.30;99.90;;;;;;5034765;28;20040;-71
2022/12/13 07:35:18;;;;;;;28.65;15.85;;;-3.30;99.90;;;;;;5034664;28;20045;-71
2022/12/13 07:37:43;;;;;;;30.05;15.32;;;-3.30;99.90;;;;;;5050939;28;20073;-71
2022/12/13 07:40:09;;;;;;;30.05;17.63;;;-3.30;99.90;;;;;;5051110;28;20460;-71
2022/12/13 07:42:35;;;;;;;29.90;16.65;;;-3.30;99.90;;;;;;5052747;28;20048;-71
2022/12/13 07:45:01;;;;;;;29.05;15.82;;;-3.30;99.90;;;;;;5055383;28;20397;-71
2022/12/13 07:47:30;;;;;;;30.98;16.77;;;-3.30;99.90;;;;;;5055570;28;20044;-71
2022/12/13 07:49:57;;;;;;;31.80;16.40;;;-3.30;99.90;;;;;;5038627;28;20087;-71
2022/12/13 07:52:23;;;;;;;30.17;16.42;;;-3.30;99.90;;;;;;5037596;28;20047;-71
2022/12/13 07:54:48;;;;;;;29.25;15.95;;;-3.30;99.90;;;;;;5038378;28;20037;-71
2022/12/13 07:57:14;;;;;;;29.30;17.10;;;-3.30;99.90;;;;;;5055503;28;20476;-71
2022/12/13 07:59:40;;;;;;;29.35;16.42;;;-3.30;99.90;;;;;;5037938;28;20064;-71
2022/12/13 08:02:09;;;;;;;33.50;16.67;;;-3.30;99.90;;;;;;5038645;28;20095;-71
2022/12/13 08:04:35;;;;;;;31.60;17.30;;;-3.30;99.90;;;;;;5038215;28;20053;-71
2022/12/13 08:07:00;;;;;;;32.53;17.77;;;-3.30;99.90;;;;;;5038292;28;20467;-72
2022/12/13 08:09:27;;;;;;;30.95;16.95;;;-3.30;99.90;;;;;;5038283;28;20048;-72
2022/12/13 08:11:53;;;;;;;31.58;18.02;;;-3.30;99.90;;;;;;5054302;28;20045;-72
2022/12/13 08:14:18;;;;;;;33.28;18.58;;;-3.20;99.90;;;;;;5055074;28;20059;-72
2022/12/13 08:16:44;;;;;;;33.53;17.98;;;-3.30;99.90;;;;;;5054666;28;20049;-72
2022/12/13 08:19:09;;;;;;;30.20;16.70;;;-3.30;99.90;;;;;;5055253;28;20037;-72
2022/12/13 08:21:36;;;;;;;29.33;15.95;;;-3.30;99.90;;;;;;5054071;28;20071;-72
2022/12/13 08:24:02;;;;;;;32.53;16.90;;;-3.30;99.90;;;;;;5055387;28;20396;-72
2022/12/13 08:26:28;;;;;;;26.80;15.65;;;-3.20;99.90;;;;;;5054483;28;20120;-72
2022/12/13 08:28:53;;;;;;;32.25;16.48;;;-3.20;99.90;;;;;;5037689;28;20515;-72
2022/12/13 08:31:19;;;;;;;31.15;16.63;;;-3.20;99.90;;;;;;5037483;28;20051;-72
2022/12/13 08:33:46;;;;;;;31.73;16.70;;;-3.20;99.90;;;;;;5049321;28;20134;-72
2022/12/13 08:36:15;;;;;;;30.98;16.15;;;-3.10;99.90;;;;;;5048510;28;20033;-72
2022/12/13 08:38:41;;;;;;;31.02;16.25;;;-3.10;99.90;;;;;;5037684;28;20041;-72
2022/12/13 08:41:07;;;;;;;34.58;16.75;;;-3.10;99.90;;;;;;5037770;28;20049;-72
2022/12/13 08:43:33;;;;;;;32.58;17.70;;;-3.10;99.90;;;;;;5054185;28;20053;-72
2022/12/13 08:45:59;;;;;;;29.60;15.93;;;-3.10;99.90;;;;;;5053499;28;20044;-72
2022/12/13 08:48:25;;;;;;;33.65;17.80;;;-3.10;99.90;;;;;;5057846;28;20385;-72
2022/12/13 08:50:51;;;;;;;31.65;17.23;;;-3.00;99.90;;;;;;5040631;28;20044;-72
2022/12/13 08:53:17;;;;;;;30.02;15.73;;;-3.00;99.90;;;;;;5053713;28;20049;-72
2022/12/13 08:55:42;;;;;;;31.10;16.75;;;-3.00;99.90;;;;;;5055901;28;20084;-72
2022/12/13 08:58:08;;;;;;;33.75;17.58;;;-3.00;99.90;;;;;;5045679;28;20523;-72
2022/12/13 09:00:35;;;;;;;33.40;17.45;;;-3.00;99.90;;;;;;5054919;28;20041;-72
2022/12/13 09:03:02;;;;;;;33.22;16.33;;;-2.90;99.90;;;;;;5048034;28;20044;-72
2022/12/13 09:05:28;;;;;;;34.70;18.08;;;-2.90;99.90;;;;;;5040110;28;20052;-72
2022/12/13 09:07:57;;;;;;;35.85;17.67;;;-2.80;99.90;;;;;;5051291;28;20045;-73
2022/12/13 09:10:23;;;;;;;32.35;17.60;;;-2.70;99.90;;;;;;5056621;28;20041;-72
2022/12/13 09:12:49;;;;;;;32.20;18.75;;;-2.70;99.90;;;;;;5036965;28;20033;-73
2022/12/13 09:15:15;;;;;;;31.27;17.48;;;-2.70;99.90;;;;;;5048121;28;20036;-73
2022/12/13 09:17:40;;;;;;;35.60;19.15;;;-2.70;99.90;;;;;;5041738;28;20052;-73
2022/12/13 09:20:10;;;;;;;34.10;18.73;;;-2.60;99.90;;;;;;5056962;28;20041;-73
2022/12/13 09:22:36;;;;;;;37.45;18.92;;;-2.50;99.90;;;;;;5057252;28;20040;-72
2022/12/13 09:25:03;;;;;;;35.25;18.45;;;-2.50;99.90;;;;;;5061370;28;20064;-73
2022/12/13 09:27:29;;;;;;;36.88;19.60;;;-2.40;99.90;;;;;;5053121;28;20036;-73
2022/12/13 09:29:55;;;;;;;36.28;18.40;;;-2.40;99.90;;;;;;5062660;28;20056;-73
2022/12/13 09:32:22;;;;;;;35.90;19.23;;;-2.30;99.90;;;;;;5053290;28;20037;-73
2022/12/13 09:34:47;;;;;;;34.28;18.45;;;-2.20;99.90;;;;;;5048681;28;20044;-73
2022/12/13 09:37:13;;;;;;;37.13;19.45;;;-2.10;99.90;;;;;;5052594;28;20045;-73
2022/12/13 09:39:39;;;;;;;39.40;20.08;;;-2.00;99.90;;;;;;5069717;28;20036;-73
2022/12/13 09:42:16;;;;;;;35.70;18.83;;;-2.00;99.90;;;;;;5053472;28;20518;-73
2022/12/13 09:44:52;;;;;;;33.22;19.67;;;-1.90;99.90;;;;;;5036698;28;20390;-73
2022/12/13 09:47:35;;;;;;;36.72;19.67;;;-1.90;99.90;;;;;;5036278;28;20507;-73
2022/12/13 09:50:08;;;;;;;35.95;18.63;;;-1.80;99.90;;;;;;5053595;28;20112;-73
2022/12/13 09:52:39;;;;;;;37.25;19.63;;;-1.70;99.90;;;;;;5044479;28;20051;-73
2022/12/13 09:55:36;;;;;;;34.90;19.07;;;-1.60;99.90;;;;;;5036230;28;20508;-73
2022/12/13 09:58:07;;;;;;;37.35;19.10;;;-1.60;99.90;;;;;;5030828;28;20284;-73
2022/12/13 10:00:34;;;;;;;37.45;20.13;;;-1.50;99.90;;;;;;5053084;28;20498;-73
2022/12/13 10:03:01;;;;;;;40.38;20.58;;;-1.40;99.90;;;;;;5039674;28;20037;-73
2022/12/13 10:05:34;;;;;;;33.75;19.48;;;-1.40;99.90;;;;;;5035077;28;20067;-73
2022/12/13 10:08:05;;;;;;;36.97;20.55;;;-1.20;99.90;;;;;;5029657;28;20037;-73
2022/12/13 10:10:30;;;;;;;31.52;18.90;;;-1.10;99.90;;;;;;5037597;28;20045;-72
2022/12/13 10:13:20;;;;;;;37.90;21.17;;;-1.00;99.90;;;;;;5036522;28;20073;-73
2022/12/13 10:16:09;;;;;;;34.90;18.65;;;-0.90;99.90;;;;;;5051908;28;20080;-72
2022/12/13 10:18:37;;;;;;;37.58;20.60;;;-0.70;99.90;;;;;;5016456;28;20055;-73
2022/12/13 10:21:09;;;;;;;36.33;19.20;;;-0.60;99.90;;;;;;5032481;28;20095;-73
2022/12/13 10:23:35;;;;;;;;;;;-0.40;99.90;;;;;;5054347;28;20084;-73
2022/12/13 10:26:01;;;;;;;39.58;19.33;;;-0.30;99.90;;;;;;5053494;28;20380;-72
2022/12/13 10:28:32;;;;;;;35.53;19.13;;;-0.20;99.90;;;;;;5056520;28;20040;-72
2022/12/13 10:30:59;;;;;;;38.67;20.35;;;-0.20;99.90;;;;;;5072608;28;20045;-72
2022/12/13 10:33:35;;;;;;;35.42;20.20;;;-0.10;99.90;;;;;;5039205;28;20037;-72
2022/12/13 10:36:06;;;;;;;38.67;19.63;;;0.00;99.90;;;;;;5032272;28;20092;-73
2022/12/13 10:38:39;;;;;;;35.03;19.13;;;0.00;99.90;;;;;;5015893;28;20077;-72
2022/12/13 10:41:37;;;;;;;35.08;19.08;;;0.10;99.90;;;;;;5020550;28;20056;-72
2022/12/13 10:44:10;;;;;;;38.35;19.48;;;0.20;99.90;;;;;;5032182;28;20108;-73
2022/12/13 10:46:40;;;;;;;33.45;18.50;;;0.20;99.90;;;;;;5034881;28;20394;-72
2022/12/13 10:49:16;;;;;;;39.58;21.90;;;0.20;99.90;;;;;;5054632;28;20056;-72
2022/12/13 10:51:43;;;;;;;33.50;20.83;;;0.30;99.90;;;;;;5047633;28;20036;-73
2022/12/13 10:54:27;;;;;;;35.75;21.13;;;0.40;99.90;;;;;;5044312;28;20040;-73
2022/12/13 10:56:58;;;;;;;38.90;20.73;;;0.40;99.90;;;;;;5054161;28;20123;-73
2022/12/13 10:59:46;;;;;;;35.87;19.77;;;0.50;99.90;;;;;;5035320;28;20072;-73
2022/12/13 11:02:38;;;;;;;31.52;18.73;;;0.50;99.90;;;;;;5054523;28;20287;-73
2022/12/13 11:05:26;;;;;;;33.00;19.65;;;0.60;99.90;;;;;;5053702;28;20531;-73
2022/12/13 11:07:54;;;;;;;32.83;17.83;;;0.60;99.90;;;;;;5038058;28;20409;-73
2022/12/13 11:10:20;;;;;;;34.60;18.58;;;0.60;99.90;;;;;;5062475;28;20041;-73
2022/12/13 11:12:46;;;;;;;34.85;19.65;;;0.60;99.90;;;;;;5069973;28;20055;-73
2022/12/13 11:15:19;;;;;;;32.13;18.25;;;0.60;99.90;;;;;;5066620;28;20036;-73
2022/12/13 11:17:49;;;;;;;33.08;19.13;;;0.60;99.90;;;;;;5058602;28;20159;-73
2022/12/13 11:20:21;;;;;;;33.78;19.98;;;0.60;99.90;;;;;;5050594;28;20048;-73
2022/12/13 11:22:48;;;;;;;31.00;19.10;;;0.50;99.90;;;;;;5065629;28;20036;-73
2022/12/13 11:25:25;;;;;;;32.15;17.65;;;0.60;99.90;;;;;;5052898;28;20043;-73
2022/12/13 11:28:11;;;;;;;31.92;19.25;;;0.60;99.90;;;;;;5048186;28;20040;-73
2022/12/13 11:31:02;;;;;;;32.08;18.45;;;0.70;99.90;;;;;;5060997;28;20127;-73
2022/12/13 11:33:39;;;;;;;31.98;17.23;;;0.70;99.90;;;;;;5049136;28;20575;-73
2022/12/13 11:36:38;;;;;;;31.05;19.08;;;0.70;99.90;;;;;;5050957;28;20049;-73
2022/12/13 11:39:19;;;;;;;34.60;17.13;;;0.70;99.90;;;;;;5050269;28;20120;-72
2022/12/13 11:41:54;;;;;;;33.33;18.85;;;0.70;99.90;;;;;;5071352;28;20072;-73
2022/12/13 11:44:37;;;;;;;29.95;17.65;;;0.70;99.90;;;;;;5033925;28;20047;-73
2022/12/13 11:47:12;;;;;;;30.48;17.58;;;0.70;99.90;;;;;;5039769;28;20037;-73
2022/12/13 11:49:40;;;;;;;31.55;18.20;;;0.60;99.90;;;;;;5056658;28;20075;-73
2022/12/13 11:52:24;;;;;;;29.73;17.38;;;0.60;99.90;;;;;;5051922;28;20044;-73
2022/12/13 11:54:53;;;;;;;32.22;17.40;;;0.50;99.90;;;;;;5069593;28;20044;-72
2022/12/13 11:57:30;;;;;;;31.20;16.92;;;0.60;99.90;;;;;;5062031;28;20049;-73
2022/12/13 12:00:35;;;;;;;28.15;15.65;;;0.70;99.90;;;;;;5063324;28;20045;-73
2022/12/13 12:03:27;;;;;;;30.60;17.10;;;0.70;99.90;;;;;;5054434;28;20041;-73
2022/12/13 12:06:22;;;;;;;32.25;17.38;;;0.60;99.90;;;;;;5051898;28;20048;-73
2022/12/13 12:09:03;;;;;;;28.85;17.88;;;0.60;99.90;;;;;;5057488;28;20028;-73
2022/12/13 12:11:47;;;;;;;28.25;16.98;;;0.50;99.90;;;;;;5035727;28;20059;-73
2022/12/13 12:14:40;;;;;;;30.45;17.17;;;0.60;99.90;;;;;;5037167;28;20484;-73
2022/12/13 12:17:05;;;;;;;28.83;16.35;;;0.70;99.90;;;;;;5048031;28;20565;-73
2022/12/13 12:19:37;;;;;;;26.33;16.95;;;0.70;99.90;;;;;;5050564;28;20048;-73
2022/12/13 12:22:31;;;;;;;29.52;16.30;;;0.70;99.90;;;;;;5065400;28;20048;-73
2022/12/13 12:25:09;;;;;;;27.55;16.58;;;0.60;99.90;;;;;;5032212;28;20037;-73
2022/12/13 12:27:54;;;;;;;28.42;16.77;;;0.60;99.90;;;;;;5054847;28;20033;-73
2022/12/13 12:30:38;;;;;;;29.02;18.48;;;0.60;99.90;;;;;;5043116;28;20049;-73
2022/12/13 12:33:30;;;;;;;32.88;17.52;;;0.50;99.90;;;;;;5054337;28;20036;-73
2022/12/13 12:36:31;;;;;;;29.35;16.27;;;0.60;99.90;;;;;;5059108;28;20036;-73
2022/12/13 12:38:59;;;;;;;28.50;16.85;;;0.70;99.90;;;;;;5036050;28;20091;-73
2022/12/13 12:41:46;;;;;;;28.52;15.68;;;0.70;99.90;;;;;;5057507;28;20049;-73
2022/12/13 12:44:34;;;;;;;28.58;16.92;;;0.70;99.90;;;;;;5042704;28;20033;-73
2022/12/13 12:47:15;;;;;;;30.48;17.23;;;0.80;99.90;;;;;;5062030;28;20119;-73
2022/12/13 12:50:12;;;;;;;27.07;17.47;;;0.80;99.90;;;;;;5041102;28;20037;-73